This is the latest recevied weather packets stored in our database for station/object GW1545. If no packets are shown the sender has not sent any weather packets the latest 10 day(s).
| Time | Temp. | Humidity | Pressure | Rain* | Wind** | Luminosity | Snow |
|---|---|---|---|---|---|---|---|
| 1777388452 | 19.44° C | 84% | 1018.9 hPa | 14.22 mm | - | - | - |
| 1777382664 | 16.11° C | 92% | 1017.9 hPa | 14.22 mm | - | - | - |
| 1777380158 | 14.44° C | 94% | 1017.2 hPa | 14.22 mm | - | - | - |
| 1777379789 | 14.44° C | 94% | 1016.9 hPa | 14.22 mm | - | - | - |
| 1777379443 | 14.44° C | 95% | 1017.2 hPa | 14.22 mm | - | - | - |
| 1777377651 | 13.89° C | 95% | 1016.9 hPa | 14.22 mm | - | - | - |
| 1777376930 | 13.89° C | 95% | 1016.9 hPa | 14.22 mm | - | - | - |
| 1777374051 | 13.33° C | 95% | 1015.9 hPa | 14.22 mm | - | - | - |
| 1777373323 | 13.33° C | 95% | 1015.5 hPa | 14.22 mm | - | - | - |
| 1777371886 | 13.33° C | 95% | 1014.2 hPa | 14.22 mm | - | - | - |
| 1777371509 | 13.33° C | 95% | 1014.5 hPa | 14.22 mm | - | - | - |
| 1777367892 | 13.33° C | 95% | 1016.5 hPa | 13.72 mm | - | - | - |
| 1777366827 | 13.33° C | 94% | 1017.2 hPa | 13.72 mm | - | - | - |
| 1777366464 | 13.33° C | 93% | 1017.9 hPa | 13.46 mm | - | - | - |
| 1777365750 | 13.33° C | 94% | 1018.6 hPa | 12.19 mm | - | - | - |
| 1777363960 | 13.33° C | 93% | 1018.6 hPa | 10.92 mm | - | - | - |
| 1777361787 | 13.33° C | 88% | 1016.2 hPa | 6.86 mm | - | - | - |
| 1777350613 | 15° C | 95% | 1018.2 hPa | 1.52 mm | - | - | - |
| 1777349561 | 15° C | 91% | 1018.9 hPa | 0.25 mm | - | - | - |
| 1777348489 | 16.67° C | 77% | 1018.9 hPa | 3.3 mm | - | - | - |
| 1777305815 | 23.89° C | 53% | 1021.6 hPa | 0 mm | - | - | - |
| 1777301869 | 21.11° C | 59% | 1021.6 hPa | 0 mm | - | - | - |
| 1777292494 | 13.33° C | 84% | 1021.6 hPa | 0 mm | - | - | - |
| 1777286725 | 7.78° C | 97% | 1021.3 hPa | 0 mm | - | - | - |
| 1777286363 | 7.22° C | 97% | 1021.3 hPa | 0 mm | - | - | - |
* Rain since midnight (hover to see other rain measurements)
** Current wind speed in m/s (hover to see current wind gust speed)